Main page
METAR-TAF:

METAR-TAF

Airports :

Lechfeld Air Base

Lechfeld, Germany

latitude: 48-11N, longitude: 010-52E, elevation: 555 m

Current weather observation

The report was made 1 hour and 11 minutes ago, at 00:20 UTC
Wind 7 kt from the North/Northeast
Temperature 0°C
Humidity 93%
Pressure 997 hPa
Visibility 10 km or more
Broken clouds at a height of 20000 ft

METAR: ETSL 150020Z 02007KT 9999 BKN200 M00/M01 Q0997 BLU+

Time: 02:31 (01:31 UTC)

Forecast

The report was made 9 hours and 30 minutes ago, at 16:01 UTC
Forecast valid from 14 at 15 UTC to 14 at 24 UTC
Wind 8 kt from the East/Northeast
Visibility: 1620 m
Scattered clouds at a height of 14000 ft
Broken clouds at a height of 20000 ft

TAF: ETSL 141601Z 1415/1424 06008KT 9999 NSW SCT140 BKN200 CANCEL 1620 BY ETGL

Weather observations and forecasts of more than 4000 airports (METAR and TAF reports).

The available stations are represented by yellow and red dots on the map.

Hover mouse over dot to see the name of the station.

Then click to see weather observations and forecasts.

To change the map : click on the green buttons with a black cross to zoom in, on the green button with a dash to zoom out, or on the green arrows for adjacent maps.


METAR-TAF: